Weather observations for the past three days for
Kennett - Kennett Memorial Airport
Imperial (Metric)
Date Time (cdt) Wind (mph) Vis. (mi.) Weather Sky Cond. Temperature (ºF) Relative Humidity Wind Chill (°F) Heat Index (°F) Pressure Precipitation (in)
Air Dwpt 6 hour altimeter (in) sea level (mb) 1 hr 3 hr 6 hr
Max. Min.
05 20:35 N 15 G 26 6.00 Light Drizzle BKN004 OVC010 59 59 100% 29.73 0.0
05 20:15 SW 13 6.00 Fog/Mist BKN011 OVC017 68 68 100% 29.69 0.0
05 19:55 SW 10 G 20 8.00 Overcast OVC018 68 68 100% 29.69 0.0
05 19:35 S 13 10.00 Overcast OVC017 68 68 100% 29.69 0.0
05 19:15 S 10 6.00 Fog/Mist OVC017 68 68 100% 29.68 0.0
05 18:55 S 10 1.25 Fog/Mist SCT005 SCT010 OVC016 66.2 66.2 100% 29.68 0.0
05 18:35 S 10 0.75 Fog/Mist BKN005 BKN010 OVC015 66.2 66.2 100% 29.7 0.0
05 18:15 S 10 0.75 Fog/Mist OVC004 66.2 66.2 100% 29.7 0.0
05 17:55 S 12 0.50 Light Drizzle OVC004 66.2 66.2 100% 29.7 0.0
05 17:35 S 10 0.75 Fog/Mist OVC004 66.2 66.2 100% 29.71 0.0
05 17:15 S 14 0.75 Fog/Mist OVC005 66.2 66.2 100% 29.71 0.0
05 16:55 S 10 0.75 Light Drizzle BKN007 OVC011 66.2 66.2 100% 29.71 0.0
05 16:35 S 12 1.00 Fog/Mist OVC011 66.2 66.2 100% 29.71 0.0
05 16:15 S 8 G 15 6.00 Fog/Mist OVC012 66.2 66.2 100% 29.72 0.0
05 15:55 S 9 9.00 Overcast OVC013 66.2 66.2 100% 29.72 0.0
05 15:35 S 9 G 17 9.00 Overcast OVC013 66.2 66.2 100% 29.72 0.0
05 15:15 S 10 G 20 10.00 Overcast OVC013 66.2 66.2 100% 29.73 0.0
05 14:55 S 13 9.00 Overcast OVC014 66.2 66.2 100% 29.73 0.0
05 14:35 S 15 10.00 Overcast OVC013 66.2 66.2 100% 29.73 0.0
05 14:15 S 15 G 24 10.00 Overcast OVC013 64.4 64.4 100% 29.73 0.0
05 13:55 S 16 8.00 Overcast OVC013 64.4 64.4 100% 29.74 0.0
05 13:35 S 13 G 20 10.00 Overcast OVC013 64.4 64.4 100% 29.74 0.0
05 13:15 S 12 9.00 Overcast OVC013 64.4 64.4 100% 29.75 0.0
05 12:55 S 9 G 15 2.00 Fog/Mist OVC013 64.4 64.4 100% 29.75 0.0
05 12:35 S 12 G 20 3.00 Fog/Mist OVC015 64.4 64.4 100% 29.76 0.0
05 12:15 S 13 G 18 10.00 Overcast OVC015 66.2 66.2 100% 29.77 0.0
05 11:55 S 12 G 17 10.00 Overcast OVC014 66.2 66.2 100% 29.76 0.0
05 11:35 SW 14 G 20 10.00 Overcast OVC013 66.2 66.2 100% 29.77 0.0
05 11:15 S 9 10.00 Overcast OVC013 66.2 66.2 100% 29.77 0.0
05 10:55 S 8 G 15 10.00 Overcast OVC012 64.4 64.4 100% 29.77 0.0
05 10:35 S 9 9.00 Overcast OVC013 64.4 64.4 100% 29.77 0.0
05 10:15 S 7 10.00 Overcast OVC012 64.4 64.4 100% 29.78 0.0
05 09:55 S 8 G 17 9.00 Overcast OVC011 64.4 64.4 100% 29.78 0.0
05 09:35 S 10 10.00 Mostly Cloudy BKN011 64.4 64.4 100% 29.76 0.0
05 09:15 S 20 G 29 10.00 A Few Clouds FEW016 FEW021 64.4 64.4 100% 29.73 0.0
05 08:55 S 20 G 25 10.00 Mostly Cloudy BKN019 62.6 62.6 100% 29.74 0.0
05 08:35 S 13 9.00 Light Drizzle FEW020 SCT036 BKN055 62.6 62.6 100% 29.77 0.0
05 08:15 S 10 2.50 Rain FEW026 BKN036 OVC047 60.8 60.8 100% 29.76 0.0
05 07:55 SW 8 4.00 Light Rain OVC026 62.6 62.6 100% 29.79 0.0
05 07:35 SW 7 5.00 Light Rain OVC025 62.6 62.6 100% 29.79 0.0
05 07:15 SW 9 5.00 Light Rain BKN025 BKN034 OVC041 62.6 62.6 100% 29.78 0.0
05 06:55 SW 10 4.00 Light Rain FEW005 SCT041 OVC050 64.4 64.4 100% 29.77 0.0
05 06:35 S 8 G 15 10.00 Overcast BKN055 OVC110 66.2 57.2 73% 29.75 0.0
05 06:15 S 12 G 17 10.00 Mostly Cloudy BKN055 BKN110 66.2 57.2 73% 29.75 0.0
05 05:55 S 12 10.00 A Few Clouds FEW050 FEW120 66.2 55.4 68% 29.74 0.0
05 05:35 S 12 10.00 Partly Cloudy SCT050 SCT055 66.2 55.4 68% 29.74 0.0
05 05:15 S 9 10.00 Mostly Cloudy BKN050 66.2 55.4 68% 29.75 0.0
05 04:55 S 8 10.00 A Few Clouds FEW050 64.4 55.4 73% 29.75 0.0
05 04:35 S 12 10.00 Fair CLR 64.4 55.4 73% 29.74 0.0
05 04:15 SW 12 10.00 Fair CLR 66.2 53.6 64% 29.75 0.0
05 03:55 SW 12 10.00 Fair CLR 66.2 53.6 64% 29.75 0.0
05 03:35 SW 15 G 22 10.00 Fair CLR 66.2 53.6 64% 29.75 0.0
05 03:15 SW 16 G 24 10.00 Fair CLR 68 53.6 60% 29.74 0.0
05 02:55 S 17 G 24 10.00 Fair CLR 68 53.6 60% 29.73 0.0
05 02:35 S 13 G 24 10.00 Fair CLR 68 51.8 56% 29.73 0.0
05 02:15 S 13 G 21 10.00 Fair CLR 68 51.8 56% 29.74 0.0
05 01:55 S 13 10.00 Fair CLR 66.2 51.8 60% 29.75 0.0
05 01:35 S 14 10.00 Fair CLR 66.2 51.8 60% 29.76 0.0
05 01:15 S 13 10.00 Fair CLR 66.2 51.8 60% 29.78 0.0
05 00:55 S 13 G 18 10.00 Fair CLR 68 51.8 56% 29.78 0.0
05 00:35 S 12 10.00 Fair CLR 68 51.8 56% 29.78 0.0
05 00:15 S 15 10.00 Fair CLR 69.8 51.8 53% 29.78 0.0
04 23:55 S 14 G 21 10.00 Fair CLR 69.8 51.8 53% 29.78 0.0
04 23:35 S 14 G 20 10.00 Fair CLR 69.8 51.8 53% 29.78 0.0
04 23:15 S 12 G 20 10.00 Fair CLR 69.8 51.8 53% 29.79 0.0
04 22:55 S 13 G 22 10.00 Fair CLR 69.8 51.8 53% 29.79 0.0
04 22:35 S 14 10.00 Fair CLR 69.8 51.8 53% 29.79 0.0
04 22:15 S 12 G 18 10.00 Fair CLR 69.8 51.8 53% 29.79 0.0
04 21:55 S 13 10.00 Fair CLR 71.6 50 47% 29.78 0.0
04 21:35 S 10 10.00 Fair CLR 69.8 51.8 53% 29.78 0.0
04 21:15 S 8 10.00 Fair CLR 69.8 51.8 53% 29.77 0.0
04 20:55 S 9 10.00 Fair CLR 71.6 51.8 50% 29.76 0.0
04 20:35 S 10 10.00 Fair CLR 71.6 51.8 50% 29.75 0.0
04 20:15 SW 12 10.00 Fair CLR 73.4 51.8 47% 29.76 0.0
04 19:55 SW 15 10.00 Fair CLR 73.4 50 44% 29.75 0.0
04 19:35 S 17 10.00 Fair CLR 75.2 50 41% 78 29.75 0.0
04 19:15 SW 21 10.00 Fair and Breezy CLR 77 50 39% 78 29.74 0.0
04 18:55 SW 15 G 30 10.00 Fair CLR 77 50 39% 78 29.75 0.0
04 18:35 S 21 G 26 10.00 Fair and Breezy CLR 78.8 50 37% 79 29.75 0.0
04 18:15 SW 25 10.00 Fair and Breezy CLR 78.8 50 37% 79 29.76 0.0
04 17:55 SW 18 G 30 10.00 Fair CLR 80.6 50 34% 80 29.77 0.0
04 17:35 SW 21 G 29 10.00 Fair and Breezy CLR 80.6 50 34% 80 29.77 0.0
04 17:15 SW 23 10.00 Fair and Breezy CLR 80.6 50 34% 80 29.77 0.0
04 16:55 SW 24 G 30 10.00 Fair and Breezy CLR 82.4 50 32% 81 29.77 0.0
04 16:35 SW 20 G 31 10.00 Fair CLR 82.4 50 32% 81 29.77 0.0
04 16:15 SW 25 G 31 10.00 Fair and Breezy CLR 82.4 48.2 30% 81 29.77 0.0
04 15:55 SW 25 G 32 10.00 Fair and Breezy CLR 82.4 48.2 30% 81 29.78 0.0
04 15:35 SW 25 G 32 10.00 Fair and Breezy CLR 82.4 48.2 30% 81 29.78 0.0
04 15:15 SW 23 G 36 10.00 Fair and Breezy CLR 82.4 46.4 28% 81 29.79 0.0
04 14:55 SW 24 G 35 10.00 Fair and Breezy CLR 82.4 48.2 30% 81 29.79 0.0
04 14:35 SW 24 G 39 10.00 Fair and Breezy CLR 80.6 48.2 32% 80 29.8 0.0
04 14:15 SW 28 G 37 10.00 Fair and Windy CLR 80.6 46.4 30% 80 29.8 0.0
04 13:55 SW 28 G 35 9.00 Fair and Windy CLR 82.4 48.2 30% 81 29.81 0.0
04 13:35 SW 26 G 35 10.00 Fair and Windy CLR 82.4 48.2 30% 81 29.81 0.0
04 13:15 SW 22 G 32 10.00 Fair and Breezy CLR 82.4 48.2 30% 81 29.82 0.0
04 12:55 SW 25 G 35 10.00 Fair and Breezy CLR 80.6 46.4 30% 80 29.83 0.0
04 12:35 SW 26 G 37 9.00 Fair and Windy CLR 80.6 46.4 30% 80 29.84 0.0
04 12:15 SW 30 G 37 10.00 Fair and Windy CLR 80.6 48.2 32% 80 29.84 0.0
04 11:55 SW 26 G 36 9.00 Fair and Windy CLR 80.6 46.4 30% 80 29.85 0.0
04 11:35 SW 25 G 35 10.00 Fair and Breezy CLR 80.6 46.4 30% 80 29.85 0.0
04 11:15 SW 26 G 33 10.00 Fair and Windy CLR 78.8 46.4 32% 79 29.86 0.0
04 10:55 SW 24 G 30 10.00 Fair and Breezy CLR 78.8 48.2 34% 79 29.87 0.0
04 10:35 SW 24 10.00 Fair and Breezy CLR 78.8 50 37% 79 29.87 0.0
04 10:15 SW 24 G 30 10.00 Fair and Breezy CLR 77 51.8 42% 78 29.87 0.0
04 09:55 SW 22 10.00 Fair and Breezy CLR 75.2 51.8 44% 78 29.88 0.0
04 09:35 SW 20 G 25 10.00 Fair CLR 73.4 53.6 50% 29.88 0.0
04 09:15 SW 16 10.00 Fair CLR 71.6 53.6 53% 29.88 0.0
04 08:55 SW 16 10.00 Fair CLR 69.8 55.4 60% 29.88 0.0
04 08:35 SW 14 10.00 Fair CLR 68 55.4 64% 29.88 0.0
04 08:15 SW 14 10.00 Fair CLR 66.2 55.4 68% 29.89 0.0
04 07:55 SW 12 G 17 10.00 Fair CLR 64.4 57.2 78% 29.88 0.0
04 07:35 SW 12 10.00 Fair CLR 62.6 57.2 83% 29.89 0.0
04 07:15 SW 9 G 16 10.00 Fair CLR 60.8 57.2 88% 29.89 0.0
04 06:55 SW 10 10.00 Fair CLR 60.8 57.2 88% 29.88 0.0
04 06:35 SW 10 10.00 Fair CLR 59 55.4 88% 29.88 0.0
04 06:15 SW 10 10.00 Fair CLR 60.8 55.4 83% 29.87 0.0
04 05:55 SW 10 10.00 Fair CLR 60.8 55.4 83% 29.86 0.0
04 05:35 SW 12 10.00 Fair CLR 60.8 53.6 77% 29.86 0.0
04 05:15 SW 13 10.00 Fair CLR 60.8 53.6 77% 29.86 0.0
04 04:55 SW 13 10.00 Fair CLR 60.8 51.8 72% 29.87 0.0
04 04:35 SW 15 10.00 Fair CLR 62.6 51.8 68% 29.86 0.0
04 04:15 SW 14 G 20 10.00 Fair CLR 62.6 51.8 68% 29.87 0.0
04 03:55 SW 14 10.00 Fair CLR 62.6 50 64% 29.86 0.0
04 03:35 SW 16 G 22 10.00 Fair CLR 62.6 50 64% 29.87 0.0
04 03:15 SW 14 G 20 10.00 Fair CLR 62.6 50 64% 29.87 0.0
04 02:55 SW 15 G 22 10.00 Fair CLR 64.4 50 60% 29.87 0.0
04 02:35 SW 14 G 21 10.00 Fair CLR 64.4 50 60% 29.88 0.0
04 02:15 SW 13 G 20 10.00 Fair CLR 64.4 50 60% 29.88 0.0
04 01:55 SW 13 10.00 Fair CLR 64.4 50 60% 29.89 0.0
04 01:35 SW 13 10.00 Fair CLR 64.4 50 60% 29.9 0.0
04 01:15 SW 13 10.00 Fair CLR 64.4 50 60% 29.91 0.0
04 00:55 SW 13 G 24 10.00 Fair CLR 64.4 50 60% 29.91 0.0
04 00:35 SW 15 10.00 Fair CLR 64.4 50 60% 29.92 0.0
04 00:15 SW 13 10.00 Fair CLR 64.4 50 60% 29.92 0.0
03 23:55 SW 12 10.00 Fair CLR 64.4 50 60% 29.92 0.0
03 23:35 SW 13 10.00 Fair CLR 64.4 50 60% 29.93 0.0
03 23:15 S 8 10.00 Fair CLR 64.4 50 60% 29.92 0.0
03 22:55 S 8 10.00 Fair CLR 64.4 50 60% 29.93 0.0
03 22:35 S 7 10.00 Fair CLR 64.4 50 60% 29.93 0.0
03 22:15 S 8 10.00 Fair CLR 64.4 50 60% 29.93 0.0
03 21:55 SW 8 10.00 Fair CLR 64.4 51.8 64% 29.94 0.0
03 21:35 S 8 10.00 Fair CLR 64.4 50 60% 29.93 0.0
03 21:15 S 8 10.00 Fair CLR 66.2 50 56% 29.93 0.0
03 20:55 S 9 10.00 Fair CLR 66.2 50 56% 29.93 0.0
03 20:35 S 8 10.00 Fair CLR 66.2 48.2 52% 29.92 0.0
03 20:15 S 8 10.00 Fair CLR 68 48.2 49% 29.92 0.0
03 19:55 SW 9 10.00 Fair CLR 68 46.4 46% 29.93 0.0
03 19:35 SW 10 G 16 10.00 Fair CLR 69.8 46.4 43% 29.93 0.0
03 19:15 S 14 10.00 Fair CLR 71.6 44.6 38% 29.93 0.0
03 18:55 SW 18 10.00 Fair CLR 73.4 44.6 36% 29.93 0.0
03 18:35 SW 17 10.00 Fair CLR 73.4 42.8 33% 29.94 0.0
03 18:15 SW 17 G 23 10.00 Fair CLR 73.4 42.8 33% 29.95 0.0
03 17:55 SW 16 10.00 Fair CLR 75.2 42.8 31% 77 29.96 0.0
03 17:35 SW 16 10.00 Fair CLR 75.2 41 29% 77 29.96 0.0
03 17:15 SW 14 G 23 10.00 Fair CLR 75.2 39.2 27% 77 29.97 0.0
03 16:55 SW 17 G 23 10.00 Fair CLR 75.2 39.2 27% 77 29.97 0.0
03 16:35 SW 14 G 24 10.00 Fair CLR 75.2 37.4 25% 77 29.98 0.0
03 16:15 SW 16 10.00 Fair CLR 75.2 37.4 25% 77 29.98 0.0
03 15:55 S 13 G 22 10.00 Fair CLR 75.2 37.4 25% 77 30 0.0
03 15:35 SW 18 G 26 10.00 Fair CLR 75.2 35.6 24% 76 30.01 0.0
03 15:15 SW 13 10.00 Fair CLR 75.2 39.2 27% 77 30.03 0.0
03 14:55 SW 12 G 21 10.00 Fair CLR 73.4 41 31% 30.04 0.0
03 14:35 SW 16 G 22 10.00 Fair CLR 73.4 39.2 29% 30.05 0.0
03 13:55 SW 15 G 24 10.00 Fair CLR 71.6 39.2 31% 30.07 0.0
03 13:35 SW 21 G 26 10.00 Fair and Breezy CLR 71.6 39.2 31% 30.09 0.0
03 13:15 SW 14 G 25 10.00 Fair CLR 71.6 39.2 31% 30.09 0.0
03 12:55 SW 17 G 25 10.00 Fair CLR 69.8 39.2 33% 30.1 0.0
03 12:35 SW 15 G 23 10.00 Fair CLR 69.8 39.2 33% 30.12 0.0
03 12:15 SW 13 G 22 10.00 Fair CLR 69.8 41 35% 30.13 0.0
03 11:55 S 12 G 23 10.00 Fair CLR 68 39.2 35% 30.13 0.0
03 11:35 S 13 G 20 10.00 Fair CLR 68 39.2 35% 30.14 0.0
03 11:15 SW 15 10.00 Fair CLR 66.2 39.2 37% 30.14 0.0
03 10:55 S 13 G 20 10.00 Fair CLR 66.2 41 40% 30.15 0.0
03 10:35 S 9 G 16 10.00 Fair CLR 64.4 41 43% 30.16 0.0
03 10:15 S 12 10.00 Fair CLR 64.4 41 43% 30.16 0.0
03 09:55 S 16 10.00 Fair CLR 60.8 37.4 42% 30.16 0.0
03 09:35 S 17 10.00 Fair CLR 60.8 41 48% 30.16 0.0
03 09:15 S 12 G 17 10.00 Fair CLR 59 42.8 55% 30.16 0.0
03 08:55 SW 13 10.00 Fair CLR 59 48.2 68% 30.16 0.0
03 08:35 S 13 10.00 Fair CLR 55.4 46.4 72% 30.16 0.0
03 08:15 S 8 10.00 Fair CLR 55.4 50 82% 30.16 0.0
03 07:55 S 6 10.00 Fair CLR 51.8 50 94% 30.16 0.0
03 07:35 S 5 10.00 Fair CLR 50 50 100% 49 30.16 0.0
03 07:15 SW 3 10.00 Fair CLR 48.2 48.2 100% 30.16 0.0
03 06:55 Calm 10.00 Fair CLR 44.6 44.6 100% 30.15 0.0
03 06:35 Calm 10.00 Fair CLR 44.6 44.6 100% 30.14 0.0
03 06:15 Calm 10.00 Fair CLR 44.6 44.6 100% 30.14 0.0
03 05:55 Calm 10.00 Fair CLR 42.8 42.8 100% 30.13 0.0
03 05:35 Calm 10.00 Fair CLR 42.8 42.8 100% 30.13 0.0
03 05:15 Calm 10.00 Fair CLR 42.8 42.8 100% 30.13 0.0
03 04:55 Calm 10.00 Fair CLR 42.8 42.8 100% 30.13 0.0
03 04:35 Calm 10.00 Fair CLR 44.6 44.6 100% 30.13 0.0
03 04:15 Calm 10.00 Fair CLR 44.6 44.6 100% 30.13 0.0
03 03:55 Calm 10.00 Fair CLR 44.6 44.6 100% 30.13 0.0
03 03:35 Calm 10.00 Fair CLR 44.6 44.6 100% 30.13 0.0
03 03:15 Calm 10.00 Fair CLR 46.4 44.6 93% 30.13 0.0
03 02:55 Calm 10.00 Fair CLR 46.4 46.4 100% 30.13 0.0
03 02:35 Calm 10.00 Fair CLR 46.4 46.4 100% 30.13 0.0
03 02:15 Calm 10.00 Fair CLR 46.4 46.4 100% 30.13 0.0
03 01:55 Calm 10.00 Fair CLR 46.4 46.4 100% 30.13 0.0
03 01:35 Calm 10.00 Fair CLR 46.4 46.4 100% 30.13 0.0
03 01:15 Calm 10.00 Fair CLR 46.4 46.4 100% 30.13 0.0
03 00:55 Calm 10.00 Fair CLR 46.4 46.4 100% 30.13 0.0
03 00:35 Calm 10.00 Fair CLR 48.2 46.4 94% 30.13 0.0
03 00:15 Calm 10.00 Fair CLR 48.2 44.6 87% 30.13 0.0
02 23:55 E 5 10.00 Fair CLR 50 41 71% 49 30.13 0.0
02 23:35 E 5 10.00 Fair CLR 50 41 71% 49 30.13 0.0
02 23:15 E 6 10.00 Fair CLR 51.8 41 67% 30.12 0.0
02 22:55 E 5 10.00 Fair CLR 51.8 39.2 62% 30.12 0.0
02 22:35 Vrbl 5 10.00 Fair CLR 53.6 39.2 58% 30.12 0.0
02 22:15 E 7 10.00 Fair CLR 53.6 39.2 58% 30.12 0.0
02 21:55 NE 8 10.00 Fair CLR 55.4 37.4 51% 30.11 0.0
02 21:35 NE 10 10.00 Fair CLR 55.4 37.4 51% 30.11 0.0
02 21:15 NE 8 10.00 Fair CLR 55.4 39.2 55% 30.1 0.0
02 20:55 NE 9 10.00 Fair CLR 57.2 37.4 48% 30.09 0.0
Date Time (cdt) Wind (mph) Vis. (mi.) Weather Sky Cond. Air Dwpt Max. Min. Relative Humidity Wind Chill (°F) Heat Index (°F) altimeter (in) sea level (mb) 1 hr 3 hr 6 hr
6 hour
Temperature (ºF) Pressure Precipitation (in)